sensor_id;sensor_type;location;lat;lon;timestamp;P1;durP1;ratioP1;P2;durP2;ratioP2
51738;SDS011;37815;52.692;6.226;2024-01-11T00:02:50;11.25;;;5.07;;
51738;SDS011;37815;52.692;6.226;2024-01-11T00:07:50;13.25;;;5.80;;
51738;SDS011;37815;52.692;6.226;2024-01-11T00:12:51;12.40;;;6.20;;
51738;SDS011;37815;52.692;6.226;2024-01-11T00:17:52;11.75;;;5.47;;
51738;SDS011;37815;52.692;6.226;2024-01-11T00:22:52;14.65;;;5.60;;
51738;SDS011;37815;52.692;6.226;2024-01-11T00:27:53;11.60;;;5.65;;
51738;SDS011;37815;52.692;6.226;2024-01-11T00:32:54;10.25;;;5.13;;
51738;SDS011;37815;52.692;6.226;2024-01-11T00:37:55;10.70;;;5.70;;
51738;SDS011;37815;52.692;6.226;2024-01-11T00:42:55;11.15;;;6.07;;
51738;SDS011;37815;52.692;6.226;2024-01-11T00:47:56;12.30;;;5.38;;
51738;SDS011;37815;52.692;6.226;2024-01-11T00:52:56;11.82;;;5.78;;
51738;SDS011;37815;52.692;6.226;2024-01-11T00:57:57;13.05;;;5.22;;
51738;SDS011;37815;52.692;6.226;2024-01-11T01:02:58;10.63;;;5.25;;
51738;SDS011;37815;52.692;6.226;2024-01-11T01:07:58;11.90;;;5.55;;
51738;SDS011;37815;52.692;6.226;2024-01-11T01:12:59;13.18;;;5.78;;
51738;SDS011;37815;52.692;6.226;2024-01-11T01:17:59;11.13;;;5.40;;
51738;SDS011;37815;52.692;6.226;2024-01-11T01:23:00;10.23;;;5.38;;
51738;SDS011;37815;52.692;6.226;2024-01-11T01:28:01;12.57;;;6.22;;
51738;SDS011;37815;52.692;6.226;2024-01-11T01:33:02;12.02;;;5.93;;
51738;SDS011;37815;52.692;6.226;2024-01-11T01:38:03;12.75;;;5.80;;
51738;SDS011;37815;52.692;6.226;2024-01-11T01:43:06;14.00;;;6.30;;
51738;SDS011;37815;52.692;6.226;2024-01-11T01:48:09;16.00;;;6.47;;
51738;SDS011;37815;52.692;6.226;2024-01-11T01:53:09;12.07;;;5.85;;
51738;SDS011;37815;52.692;6.226;2024-01-11T01:58:10;11.27;;;5.63;;
51738;SDS011;37815;52.692;6.226;2024-01-11T02:03:12;13.30;;;6.57;;
51738;SDS011;37815;52.692;6.226;2024-01-11T02:08:16;11.70;;;5.75;;
51738;SDS011;37815;52.692;6.226;2024-01-11T02:13:17;13.13;;;5.95;;
51738;SDS011;37815;52.692;6.226;2024-01-11T02:18:19;12.85;;;5.65;;
51738;SDS011;37815;52.692;6.226;2024-01-11T02:23:21;13.38;;;6.30;;
51738;SDS011;37815;52.692;6.226;2024-01-11T02:28:24;14.85;;;7.13;;
51738;SDS011;37815;52.692;6.226;2024-01-11T02:33:24;15.90;;;6.50;;
51738;SDS011;37815;52.692;6.226;2024-01-11T02:38:25;13.93;;;6.50;;
51738;SDS011;37815;52.692;6.226;2024-01-11T02:43:28;13.50;;;5.97;;
51738;SDS011;37815;52.692;6.226;2024-01-11T02:48:29;14.88;;;6.60;;
51738;SDS011;37815;52.692;6.226;2024-01-11T02:53:30;15.00;;;7.03;;
51738;SDS011;37815;52.692;6.226;2024-01-11T02:58:34;13.65;;;6.20;;
51738;SDS011;37815;52.692;6.226;2024-01-11T03:03:34;14.63;;;6.97;;
51738;SDS011;37815;52.692;6.226;2024-01-11T03:08:35;13.52;;;6.38;;
51738;SDS011;37815;52.692;6.226;2024-01-11T03:13:36;16.02;;;6.47;;
51738;SDS011;37815;52.692;6.226;2024-01-11T03:18:36;14.00;;;6.15;;
51738;SDS011;37815;52.692;6.226;2024-01-11T03:23:37;15.23;;;5.97;;
51738;SDS011;37815;52.692;6.226;2024-01-11T03:28:38;13.80;;;6.93;;
51738;SDS011;37815;52.692;6.226;2024-01-11T03:33:38;13.40;;;5.40;;
51738;SDS011;37815;52.692;6.226;2024-01-11T03:38:39;14.77;;;6.65;;
51738;SDS011;37815;52.692;6.226;2024-01-11T03:43:40;14.48;;;6.35;;
51738;SDS011;37815;52.692;6.226;2024-01-11T03:48:42;13.35;;;5.90;;
51738;SDS011;37815;52.692;6.226;2024-01-11T03:53:42;13.52;;;6.07;;
51738;SDS011;37815;52.692;6.226;2024-01-11T03:58:43;12.60;;;6.28;;
51738;SDS011;37815;52.692;6.226;2024-01-11T04:03:44;11.93;;;5.85;;
51738;SDS011;37815;52.692;6.226;2024-01-11T04:08:45;15.32;;;6.63;;
51738;SDS011;37815;52.692;6.226;2024-01-11T04:13:46;14.90;;;6.30;;
51738;SDS011;37815;52.692;6.226;2024-01-11T04:18:46;13.25;;;6.45;;
51738;SDS011;37815;52.692;6.226;2024-01-11T04:23:47;15.35;;;6.70;;
51738;SDS011;37815;52.692;6.226;2024-01-11T04:28:48;14.55;;;7.15;;
51738;SDS011;37815;52.692;6.226;2024-01-11T04:33:49;14.38;;;5.88;;
51738;SDS011;37815;52.692;6.226;2024-01-11T04:38:50;17.30;;;6.97;;
51738;SDS011;37815;52.692;6.226;2024-01-11T04:43:50;14.93;;;6.93;;
51738;SDS011;37815;52.692;6.226;2024-01-11T04:48:51;14.10;;;6.88;;
51738;SDS011;37815;52.692;6.226;2024-01-11T04:53:53;16.05;;;6.40;;
51738;SDS011;37815;52.692;6.226;2024-01-11T04:58:54;16.48;;;7.28;;
51738;SDS011;37815;52.692;6.226;2024-01-11T05:03:55;14.95;;;7.53;;
51738;SDS011;37815;52.692;6.226;2024-01-11T05:08:55;13.85;;;6.57;;
51738;SDS011;37815;52.692;6.226;2024-01-11T05:13:56;14.60;;;6.85;;
51738;SDS011;37815;52.692;6.226;2024-01-11T05:18:57;14.50;;;6.47;;
51738;SDS011;37815;52.692;6.226;2024-01-11T05:23:58;14.88;;;7.38;;
51738;SDS011;37815;52.692;6.226;2024-01-11T05:28:59;12.75;;;6.72;;
51738;SDS011;37815;52.692;6.226;2024-01-11T05:33:59;14.48;;;6.78;;
51738;SDS011;37815;52.692;6.226;2024-01-11T05:39:00;15.05;;;5.88;;
51738;SDS011;37815;52.692;6.226;2024-01-11T05:44:00;12.75;;;6.43;;
51738;SDS011;37815;52.692;6.226;2024-01-11T05:49:01;15.23;;;6.72;;
51738;SDS011;37815;52.692;6.226;2024-01-11T05:54:01;16.67;;;7.47;;
51738;SDS011;37815;52.692;6.226;2024-01-11T05:59:02;13.45;;;6.18;;
51738;SDS011;37815;52.692;6.226;2024-01-11T06:04:03;14.48;;;6.45;;
51738;SDS011;37815;52.692;6.226;2024-01-11T06:09:03;14.63;;;6.47;;
51738;SDS011;37815;52.692;6.226;2024-01-11T06:14:04;15.45;;;6.65;;
51738;SDS011;37815;52.692;6.226;2024-01-11T06:19:05;16.30;;;6.88;;
51738;SDS011;37815;52.692;6.226;2024-01-11T06:24:07;13.38;;;6.20;;
51738;SDS011;37815;52.692;6.226;2024-01-11T06:29:07;14.27;;;6.97;;
51738;SDS011;37815;52.692;6.226;2024-01-11T06:34:08;13.82;;;5.85;;
51738;SDS011;37815;52.692;6.226;2024-01-11T06:39:08;15.23;;;6.22;;
51738;SDS011;37815;52.692;6.226;2024-01-11T06:44:10;15.55;;;7.28;;
51738;SDS011;37815;52.692;6.226;2024-01-11T06:49:10;15.18;;;7.20;;
51738;SDS011;37815;52.692;6.226;2024-01-11T06:54:11;13.57;;;6.68;;
51738;SDS011;37815;52.692;6.226;2024-01-11T06:59:12;16.20;;;7.55;;
51738;SDS011;37815;52.692;6.226;2024-01-11T07:04:12;13.13;;;6.28;;
51738;SDS011;37815;52.692;6.226;2024-01-11T07:09:13;14.93;;;6.65;;
51738;SDS011;37815;52.692;6.226;2024-01-11T07:14:14;17.92;;;7.40;;
51738;SDS011;37815;52.692;6.226;2024-01-11T07:19:15;16.48;;;7.20;;
51738;SDS011;37815;52.692;6.226;2024-01-11T07:24:17;17.58;;;7.47;;
51738;SDS011;37815;52.692;6.226;2024-01-11T07:29:18;14.80;;;6.70;;
51738;SDS011;37815;52.692;6.226;2024-01-11T07:34:19;12.20;;;6.45;;
51738;SDS011;37815;52.692;6.226;2024-01-11T07:39:20;18.77;;;8.05;;
51738;SDS011;37815;52.692;6.226;2024-01-11T07:44:22;18.23;;;7.28;;
51738;SDS011;37815;52.692;6.226;2024-01-11T07:49:23;16.45;;;7.95;;
51738;SDS011;37815;52.692;6.226;2024-01-11T07:54:24;17.02;;;7.05;;
51738;SDS011;37815;52.692;6.226;2024-01-11T07:59:24;18.15;;;7.15;;
51738;SDS011;37815;52.692;6.226;2024-01-11T08:04:25;15.68;;;7.00;;
51738;SDS011;37815;52.692;6.226;2024-01-11T08:09:25;14.50;;;6.55;;
51738;SDS011;37815;52.692;6.226;2024-01-11T08:14:26;13.23;;;5.97;;
51738;SDS011;37815;52.692;6.226;2024-01-11T08:19:27;18.48;;;7.32;;
51738;SDS011;37815;52.692;6.226;2024-01-11T08:24:27;17.10;;;7.50;;
51738;SDS011;37815;52.692;6.226;2024-01-11T08:29:28;16.48;;;6.80;;
51738;SDS011;37815;52.692;6.226;2024-01-11T08:34:29;12.90;;;6.15;;
51738;SDS011;37815;52.692;6.226;2024-01-11T08:39:30;14.23;;;6.72;;
51738;SDS011;37815;52.692;6.226;2024-01-11T08:44:31;15.68;;;7.13;;
51738;SDS011;37815;52.692;6.226;2024-01-11T08:49:32;14.65;;;6.63;;
51738;SDS011;37815;52.692;6.226;2024-01-11T08:54:33;15.45;;;6.85;;
51738;SDS011;37815;52.692;6.226;2024-01-11T08:59:33;15.98;;;6.90;;
51738;SDS011;37815;52.692;6.226;2024-01-11T09:04:34;14.50;;;7.13;;
51738;SDS011;37815;52.692;6.226;2024-01-11T09:09:34;14.00;;;6.47;;
51738;SDS011;37815;52.692;6.226;2024-01-11T09:14:35;13.18;;;6.40;;
51738;SDS011;37815;52.692;6.226;2024-01-11T09:19:36;13.25;;;6.50;;
51738;SDS011;37815;52.692;6.226;2024-01-11T09:24:39;14.63;;;6.15;;
51738;SDS011;37815;52.692;6.226;2024-01-11T09:29:43;11.80;;;5.53;;
51738;SDS011;37815;52.692;6.226;2024-01-11T09:34:45;12.60;;;5.63;;
51738;SDS011;37815;52.692;6.226;2024-01-11T09:39:45;13.60;;;6.18;;
51738;SDS011;37815;52.692;6.226;2024-01-11T09:44:46;13.02;;;5.93;;
51738;SDS011;37815;52.692;6.226;2024-01-11T09:49:47;15.63;;;6.55;;
51738;SDS011;37815;52.692;6.226;2024-01-11T09:54:53;12.68;;;6.28;;
51738;SDS011;37815;52.692;6.226;2024-01-11T09:59:54;16.17;;;6.68;;
51738;SDS011;37815;52.692;6.226;2024-01-11T10:04:56;17.42;;;7.43;;
51738;SDS011;37815;52.692;6.226;2024-01-11T10:09:57;14.18;;;6.53;;
51738;SDS011;37815;52.692;6.226;2024-01-11T10:15:04;13.63;;;6.47;;
51738;SDS011;37815;52.692;6.226;2024-01-11T10:20:10;14.85;;;6.20;;
51738;SDS011;37815;52.692;6.226;2024-01-11T10:25:14;17.13;;;6.65;;
51738;SDS011;37815;52.692;6.226;2024-01-11T10:30:16;14.57;;;6.10;;
51738;SDS011;37815;52.692;6.226;2024-01-11T10:35:17;14.57;;;6.05;;
51738;SDS011;37815;52.692;6.226;2024-01-11T10:40:18;11.55;;;5.75;;
51738;SDS011;37815;52.692;6.226;2024-01-11T10:45:24;16.17;;;6.78;;
51738;SDS011;37815;52.692;6.226;2024-01-11T10:50:26;14.40;;;6.25;;
51738;SDS011;37815;52.692;6.226;2024-01-11T10:55:31;15.23;;;6.72;;
51738;SDS011;37815;52.692;6.226;2024-01-11T11:00:34;15.52;;;6.40;;
51738;SDS011;37815;52.692;6.226;2024-01-11T11:05:35;12.77;;;6.65;;
51738;SDS011;37815;52.692;6.226;2024-01-11T11:10:37;14.43;;;6.55;;
51738;SDS011;37815;52.692;6.226;2024-01-11T11:15:41;17.10;;;6.40;;
51738;SDS011;37815;52.692;6.226;2024-01-11T11:20:45;12.85;;;6.20;;
51738;SDS011;37815;52.692;6.226;2024-01-11T11:25:47;14.27;;;6.45;;
51738;SDS011;37815;52.692;6.226;2024-01-11T11:30:49;12.65;;;6.18;;
51738;SDS011;37815;52.692;6.226;2024-01-11T11:35:52;18.23;;;6.63;;
51738;SDS011;37815;52.692;6.226;2024-01-11T11:40:55;16.75;;;6.45;;
51738;SDS011;37815;52.692;6.226;2024-01-11T11:45:59;15.75;;;6.32;;
51738;SDS011;37815;52.692;6.226;2024-01-11T11:51:07;17.60;;;6.53;;
51738;SDS011;37815;52.692;6.226;2024-01-11T11:56:12;18.48;;;6.95;;
51738;SDS011;37815;52.692;6.226;2024-01-11T12:01:16;14.40;;;6.63;;
51738;SDS011;37815;52.692;6.226;2024-01-11T12:06:18;19.40;;;7.97;;
51738;SDS011;37815;52.692;6.226;2024-01-11T12:11:20;17.63;;;7.70;;
51738;SDS011;37815;52.692;6.226;2024-01-11T12:16:21;20.05;;;8.52;;
51738;SDS011;37815;52.692;6.226;2024-01-11T12:21:22;20.52;;;8.23;;
51738;SDS011;37815;52.692;6.226;2024-01-11T12:26:22;21.05;;;9.20;;
51738;SDS011;37815;52.692;6.226;2024-01-11T12:31:23;22.95;;;7.88;;
51738;SDS011;37815;52.692;6.226;2024-01-11T12:36:24;19.88;;;7.88;;
51738;SDS011;37815;52.692;6.226;2024-01-11T12:41:25;20.65;;;8.05;;
51738;SDS011;37815;52.692;6.226;2024-01-11T12:46:26;17.25;;;7.38;;
51738;SDS011;37815;52.692;6.226;2024-01-11T12:51:27;16.27;;;7.70;;
51738;SDS011;37815;52.692;6.226;2024-01-11T12:56:27;17.20;;;7.20;;
51738;SDS011;37815;52.692;6.226;2024-01-11T13:01:28;22.40;;;7.15;;
51738;SDS011;37815;52.692;6.226;2024-01-11T13:06:32;15.95;;;7.05;;
51738;SDS011;37815;52.692;6.226;2024-01-11T13:11:34;12.20;;;6.25;;
51738;SDS011;37815;52.692;6.226;2024-01-11T13:16:35;16.77;;;6.38;;
51738;SDS011;37815;52.692;6.226;2024-01-11T13:21:35;17.98;;;7.07;;
51738;SDS011;37815;52.692;6.226;2024-01-11T13:26:36;18.83;;;7.90;;
51738;SDS011;37815;52.692;6.226;2024-01-11T13:31:37;15.88;;;7.50;;
51738;SDS011;37815;52.692;6.226;2024-01-11T13:36:38;16.33;;;6.65;;
51738;SDS011;37815;52.692;6.226;2024-01-11T13:41:38;15.15;;;6.43;;
51738;SDS011;37815;52.692;6.226;2024-01-11T13:46:40;14.73;;;6.05;;
51738;SDS011;37815;52.692;6.226;2024-01-11T13:51:41;14.02;;;6.50;;
51738;SDS011;37815;52.692;6.226;2024-01-11T13:56:44;20.65;;;7.22;;
51738;SDS011;37815;52.692;6.226;2024-01-11T14:01:45;17.95;;;6.50;;
51738;SDS011;37815;52.692;6.226;2024-01-11T14:06:45;13.80;;;6.90;;
51738;SDS011;37815;52.692;6.226;2024-01-11T14:11:46;14.10;;;6.22;;
51738;SDS011;37815;52.692;6.226;2024-01-11T14:16:48;16.42;;;7.38;;
51738;SDS011;37815;52.692;6.226;2024-01-11T14:21:49;15.07;;;6.22;;
51738;SDS011;37815;52.692;6.226;2024-01-11T14:26:51;13.70;;;5.95;;
51738;SDS011;37815;52.692;6.226;2024-01-11T14:31:52;15.65;;;6.90;;
51738;SDS011;37815;52.692;6.226;2024-01-11T14:36:52;14.20;;;6.22;;
51738;SDS011;37815;52.692;6.226;2024-01-11T14:41:53;14.75;;;6.28;;
51738;SDS011;37815;52.692;6.226;2024-01-11T14:46:55;16.90;;;6.03;;
51738;SDS011;37815;52.692;6.226;2024-01-11T14:51:57;18.00;;;5.90;;
51738;SDS011;37815;52.692;6.226;2024-01-11T14:56:57;14.90;;;6.63;;
51738;SDS011;37815;52.692;6.226;2024-01-11T15:02:01;17.60;;;6.88;;
51738;SDS011;37815;52.692;6.226;2024-01-11T15:07:03;17.25;;;6.80;;
51738;SDS011;37815;52.692;6.226;2024-01-11T15:12:04;14.90;;;6.47;;
51738;SDS011;37815;52.692;6.226;2024-01-11T15:17:05;18.55;;;7.25;;
51738;SDS011;37815;52.692;6.226;2024-01-11T15:22:06;19.27;;;6.95;;
51738;SDS011;37815;52.692;6.226;2024-01-11T15:27:08;22.25;;;7.55;;
51738;SDS011;37815;52.692;6.226;2024-01-11T15:32:09;14.85;;;6.43;;
51738;SDS011;37815;52.692;6.226;2024-01-11T15:37:10;19.02;;;6.97;;
51738;SDS011;37815;52.692;6.226;2024-01-11T15:42:10;16.23;;;7.20;;
51738;SDS011;37815;52.692;6.226;2024-01-11T15:47:11;15.40;;;6.57;;
51738;SDS011;37815;52.692;6.226;2024-01-11T15:52:11;16.20;;;6.78;;
51738;SDS011;37815;52.692;6.226;2024-01-11T15:57:12;14.18;;;6.75;;
51738;SDS011;37815;52.692;6.226;2024-01-11T16:02:13;15.45;;;6.88;;
51738;SDS011;37815;52.692;6.226;2024-01-11T16:07:14;13.82;;;6.35;;
51738;SDS011;37815;52.692;6.226;2024-01-11T16:12:16;12.82;;;5.78;;
51738;SDS011;37815;52.692;6.226;2024-01-11T16:17:16;13.35;;;6.15;;
51738;SDS011;37815;52.692;6.226;2024-01-11T16:22:17;14.55;;;6.28;;
51738;SDS011;37815;52.692;6.226;2024-01-11T16:27:20;14.55;;;6.20;;
51738;SDS011;37815;52.692;6.226;2024-01-11T16:32:20;15.27;;;5.90;;
51738;SDS011;37815;52.692;6.226;2024-01-11T16:37:22;14.93;;;6.15;;
51738;SDS011;37815;52.692;6.226;2024-01-11T16:42:23;11.55;;;6.30;;
51738;SDS011;37815;52.692;6.226;2024-01-11T16:47:24;13.60;;;5.57;;
51738;SDS011;37815;52.692;6.226;2024-01-11T16:52:25;12.90;;;5.57;;
51738;SDS011;37815;52.692;6.226;2024-01-11T16:57:25;15.82;;;6.50;;
51738;SDS011;37815;52.692;6.226;2024-01-11T17:02:26;12.55;;;5.18;;
51738;SDS011;37815;52.692;6.226;2024-01-11T17:07:31;15.15;;;6.00;;
51738;SDS011;37815;52.692;6.226;2024-01-11T17:12:31;13.60;;;5.80;;
51738;SDS011;37815;52.692;6.226;2024-01-11T17:17:32;12.38;;;5.15;;
51738;SDS011;37815;52.692;6.226;2024-01-11T17:22:33;10.55;;;5.20;;
51738;SDS011;37815;52.692;6.226;2024-01-11T17:27:34;9.77;;;4.82;;
51738;SDS011;37815;52.692;6.226;2024-01-11T17:32:37;12.15;;;5.60;;
51738;SDS011;37815;52.692;6.226;2024-01-11T17:37:37;12.80;;;5.70;;
51738;SDS011;37815;52.692;6.226;2024-01-11T17:42:38;18.77;;;6.93;;
51738;SDS011;37815;52.692;6.226;2024-01-11T17:47:41;17.55;;;6.97;;
51738;SDS011;37815;52.692;6.226;2024-01-11T17:52:41;14.77;;;6.07;;
51738;SDS011;37815;52.692;6.226;2024-01-11T17:57:43;14.00;;;6.82;;
51738;SDS011;37815;52.692;6.226;2024-01-11T18:02:43;15.00;;;5.93;;
51738;SDS011;37815;52.692;6.226;2024-01-11T18:07:44;11.35;;;5.68;;
51738;SDS011;37815;52.692;6.226;2024-01-11T18:12:44;13.45;;;6.05;;
51738;SDS011;37815;52.692;6.226;2024-01-11T18:17:47;11.57;;;5.82;;
51738;SDS011;37815;52.692;6.226;2024-01-11T18:22:47;13.27;;;5.65;;
51738;SDS011;37815;52.692;6.226;2024-01-11T18:27:48;11.15;;;5.90;;
51738;SDS011;37815;52.692;6.226;2024-01-11T18:32:49;10.80;;;5.30;;
51738;SDS011;37815;52.692;6.226;2024-01-11T18:37:49;11.48;;;5.38;;
51738;SDS011;37815;52.692;6.226;2024-01-11T18:42:51;11.65;;;5.25;;
51738;SDS011;37815;52.692;6.226;2024-01-11T18:47:51;12.85;;;5.78;;
51738;SDS011;37815;52.692;6.226;2024-01-11T18:52:52;9.73;;;4.70;;
51738;SDS011;37815;52.692;6.226;2024-01-11T18:57:52;13.00;;;5.20;;
51738;SDS011;37815;52.692;6.226;2024-01-11T19:02:54;10.57;;;5.25;;
51738;SDS011;37815;52.692;6.226;2024-01-11T19:07:55;11.02;;;5.20;;
51738;SDS011;37815;52.692;6.226;2024-01-11T19:12:56;10.80;;;4.38;;
51738;SDS011;37815;52.692;6.226;2024-01-11T19:17:57;10.30;;;4.93;;
51738;SDS011;37815;52.692;6.226;2024-01-11T19:22:58;9.23;;;4.18;;
51738;SDS011;37815;52.692;6.226;2024-01-11T19:28:02;9.32;;;4.75;;
51738;SDS011;37815;52.692;6.226;2024-01-11T19:33:02;8.60;;;4.43;;
51738;SDS011;37815;52.692;6.226;2024-01-11T19:38:05;10.63;;;4.82;;
51738;SDS011;37815;52.692;6.226;2024-01-11T19:43:06;10.88;;;4.80;;
51738;SDS011;37815;52.692;6.226;2024-01-11T19:48:06;12.10;;;5.03;;
51738;SDS011;37815;52.692;6.226;2024-01-11T19:53:08;8.95;;;4.07;;
51738;SDS011;37815;52.692;6.226;2024-01-11T19:58:08;10.20;;;4.18;;
51738;SDS011;37815;52.692;6.226;2024-01-11T20:03:09;9.88;;;4.57;;
51738;SDS011;37815;52.692;6.226;2024-01-11T20:08:09;7.05;;;4.22;;
51738;SDS011;37815;52.692;6.226;2024-01-11T20:13:10;9.43;;;4.32;;
51738;SDS011;37815;52.692;6.226;2024-01-11T20:18:10;9.73;;;4.38;;
51738;SDS011;37815;52.692;6.226;2024-01-11T20:23:11;9.30;;;4.22;;
51738;SDS011;37815;52.692;6.226;2024-01-11T20:28:13;8.23;;;3.90;;
51738;SDS011;37815;52.692;6.226;2024-01-11T20:33:13;9.50;;;4.32;;
51738;SDS011;37815;52.692;6.226;2024-01-11T20:38:14;7.80;;;3.70;;
51738;SDS011;37815;52.692;6.226;2024-01-11T20:43:16;9.02;;;4.15;;
51738;SDS011;37815;52.692;6.226;2024-01-11T20:48:17;9.57;;;3.88;;
51738;SDS011;37815;52.692;6.226;2024-01-11T20:53:17;8.77;;;3.60;;
51738;SDS011;37815;52.692;6.226;2024-01-11T20:58:18;9.15;;;4.28;;
51738;SDS011;37815;52.692;6.226;2024-01-11T21:03:19;7.47;;;3.78;;
51738;SDS011;37815;52.692;6.226;2024-01-11T21:08:19;8.13;;;3.83;;
51738;SDS011;37815;52.692;6.226;2024-01-11T21:13:20;8.57;;;4.10;;
51738;SDS011;37815;52.692;6.226;2024-01-11T21:18:21;8.63;;;4.05;;
51738;SDS011;37815;52.692;6.226;2024-01-11T21:23:21;8.77;;;3.70;;
51738;SDS011;37815;52.692;6.226;2024-01-11T21:28:22;8.55;;;4.10;;
51738;SDS011;37815;52.692;6.226;2024-01-11T21:33:22;8.60;;;3.83;;
51738;SDS011;37815;52.692;6.226;2024-01-11T21:38:23;7.65;;;3.65;;
51738;SDS011;37815;52.692;6.226;2024-01-11T21:43:24;8.75;;;3.97;;
51738;SDS011;37815;52.692;6.226;2024-01-11T21:48:24;8.60;;;3.83;;
51738;SDS011;37815;52.692;6.226;2024-01-11T21:53:25;10.05;;;4.40;;
51738;SDS011;37815;52.692;6.226;2024-01-11T21:58:30;9.65;;;4.10;;
51738;SDS011;37815;52.692;6.226;2024-01-11T22:03:30;8.70;;;3.95;;
51738;SDS011;37815;52.692;6.226;2024-01-11T22:08:33;7.72;;;3.95;;
51738;SDS011;37815;52.692;6.226;2024-01-11T22:13:34;9.02;;;3.75;;
51738;SDS011;37815;52.692;6.226;2024-01-11T22:18:35;8.30;;;3.95;;
51738;SDS011;37815;52.692;6.226;2024-01-11T22:23:35;8.48;;;3.95;;
51738;SDS011;37815;52.692;6.226;2024-01-11T22:28:36;5.88;;;3.40;;
51738;SDS011;37815;52.692;6.226;2024-01-11T22:33:36;7.03;;;3.67;;
51738;SDS011;37815;52.692;6.226;2024-01-11T22:38:37;8.32;;;3.55;;
51738;SDS011;37815;52.692;6.226;2024-01-11T22:43:38;6.45;;;3.45;;
51738;SDS011;37815;52.692;6.226;2024-01-11T22:48:38;8.80;;;3.90;;
51738;SDS011;37815;52.692;6.226;2024-01-11T22:53:41;7.03;;;3.45;;
51738;SDS011;37815;52.692;6.226;2024-01-11T22:58:43;6.95;;;3.90;;
51738;SDS011;37815;52.692;6.226;2024-01-11T23:03:44;10.30;;;4.15;;
51738;SDS011;37815;52.692;6.226;2024-01-11T23:08:44;8.93;;;4.05;;
51738;SDS011;37815;52.692;6.226;2024-01-11T23:13:45;8.05;;;3.75;;
51738;SDS011;37815;52.692;6.226;2024-01-11T23:18:46;7.70;;;4.03;;
51738;SDS011;37815;52.692;6.226;2024-01-11T23:23:47;8.35;;;4.43;;
51738;SDS011;37815;52.692;6.226;2024-01-11T23:28:47;8.15;;;4.07;;
51738;SDS011;37815;52.692;6.226;2024-01-11T23:33:48;8.63;;;3.70;;
51738;SDS011;37815;52.692;6.226;2024-01-11T23:38:48;5.82;;;3.58;;
51738;SDS011;37815;52.692;6.226;2024-01-11T23:43:52;8.80;;;3.90;;
51738;SDS011;37815;52.692;6.226;2024-01-11T23:48:53;6.55;;;3.35;;
51738;SDS011;37815;52.692;6.226;2024-01-11T23:53:53;9.15;;;3.65;;
51738;SDS011;37815;52.692;6.226;2024-01-11T23:58:54;7.90;;;3.55;;
